Time;durP1;ratioP1;P1;durP2;ratioP2;P2;SDS_P1;SDS_P2;PMS_P1;PMS_P2;Temp;Humidity;BMP_temperature;BMP_pressure;BME280_temperature;BME280_humidity;BME280_pressure;Samples;Min_cycle;Max_cycle;Signal;HPM_P1;HPM_P2
2020/12/25 00:01:28;;;;;;;2.67;0.30;;;15.20;53.50;;;;;;4863201;29;20045;-75
2020/12/25 00:03:56;;;;;;;1.92;0.30;;;15.20;53.40;;;;;;4863644;29;20053;-75
2020/12/25 00:06:22;;;;;;;2.25;0.22;;;15.20;53.40;;;;;;4863225;29;20068;-73
2020/12/25 00:08:48;;;;;;;1.73;0.25;;;15.20;53.50;;;;;;4862857;29;20049;-73
2020/12/25 00:11:14;;;;;;;1.17;0.10;;;15.20;53.40;;;;;;4863014;29;20395;-74
2020/12/25 00:13:45;;;;;;;1.15;0.20;;;15.20;53.30;;;;;;4863086;29;20080;-74
2020/12/25 00:16:11;;;;;;;2.75;0.30;;;15.20;53.20;;;;;;4862799;29;20539;-74
2020/12/25 00:18:36;;;;;;;1.65;0.20;;;15.20;53.20;;;;;;4863250;29;20084;-74
2020/12/25 00:21:02;;;;;;;1.98;0.20;;;15.20;53.20;;;;;;4863299;29;20154;-73
2020/12/25 00:23:28;;;;;;;0.82;0.22;;;15.20;53.20;;;;;;4863237;29;20060;-74
2020/12/25 00:25:54;;;;;;;0.85;0.30;;;15.20;53.20;;;;;;4862601;29;20053;-74
2020/12/25 00:28:20;;;;;;;2.00;0.32;;;15.20;53.10;;;;;;4863562;29;20356;-73
2020/12/25 00:30:46;;;;;;;1.25;0.30;;;15.20;53.00;;;;;;4863303;29;20053;-75
2020/12/25 00:33:11;;;;;;;2.45;0.30;;;15.20;53.00;;;;;;4862426;29;20189;-73
2020/12/25 00:35:42;;;;;;;0.98;0.10;;;15.20;53.00;;;;;;4862159;29;20080;-76
2020/12/25 00:38:07;;;;;;;1.50;0.40;;;15.20;52.90;;;;;;4862522;29;20380;-73
2020/12/25 00:40:33;;;;;;;2.13;0.43;;;15.10;52.90;;;;;;4862346;29;20049;-73
2020/12/25 00:42:59;;;;;;;2.42;0.35;;;15.20;52.90;;;;;;4862335;29;20076;-75
2020/12/25 00:45:25;;;;;;;2.47;0.20;;;15.20;52.90;;;;;;4862713;29;20053;-76
2020/12/25 00:47:51;;;;;;;1.00;0.30;;;15.10;52.90;;;;;;4863425;29;20455;-74
2020/12/25 00:50:17;;;;;;;1.35;0.15;;;15.20;53.00;;;;;;4862642;29;20056;-74
2020/12/25 00:52:43;;;;;;;1.85;0.50;;;15.10;53.00;;;;;;4862301;29;20148;-74
2020/12/25 00:55:09;;;;;;;2.00;0.40;;;15.20;53.10;;;;;;4862375;29;20045;-74
2020/12/25 00:57:34;;;;;;;3.53;0.63;;;15.20;53.10;;;;;;4862988;29;20109;-73
2020/12/25 01:00:00;;;;;;;3.40;0.20;;;15.20;53.10;;;;;;4862019;29;20076;-74
2020/12/25 01:02:28;;;;;;;1.73;0.20;;;15.20;53.60;;;;;;4862810;29;20057;-74
2020/12/25 01:04:55;;;;;;;1.60;0.30;;;15.20;52.90;;;;;;4862610;29;20068;-73
2020/12/25 01:07:21;;;;;;;0.95;0.10;;;15.20;52.80;;;;;;4862147;29;20049;-74
2020/12/25 01:09:47;;;;;;;2.63;0.30;;;15.20;52.80;;;;;;4862108;29;20498;-74
2020/12/25 01:12:12;;;;;;;1.08;0.20;;;15.20;52.70;;;;;;4862630;29;20121;-75
2020/12/25 01:14:38;;;;;;;1.55;0.10;;;15.20;52.50;;;;;;4862696;29;20041;-74
2020/12/25 01:17:04;;;;;;;2.47;0.30;;;15.20;52.50;;;;;;4862121;29;20065;-75
2020/12/25 01:19:30;;;;;;;0.60;0.17;;;15.20;52.40;;;;;;4861905;29;20535;-74
2020/12/25 01:21:55;;;;;;;0.98;0.13;;;15.20;52.30;;;;;;4861896;29;20053;-74
2020/12/25 01:24:21;;;;;;;1.27;0.20;;;15.20;52.30;;;;;;4862412;29;20057;-72
2020/12/25 01:26:47;;;;;;;0.35;0.10;;;15.20;52.30;;;;;;4863129;29;20351;-73
2020/12/25 01:29:13;;;;;;;0.60;0.25;;;15.20;52.40;;;;;;4862727;29;20473;-74
2020/12/25 01:31:39;;;;;;;2.65;0.40;;;15.20;52.30;;;;;;4862344;29;20539;-73
2020/12/25 01:34:04;;;;;;;0.85;0.20;;;15.20;52.20;;;;;;4861884;29;20054;-75
2020/12/25 01:36:30;;;;;;;1.35;0.20;;;15.20;52.10;;;;;;4862435;29;20067;-75
2020/12/25 01:38:56;;;;;;;1.60;0.20;;;15.20;52.10;;;;;;4862165;29;20067;-74
2020/12/25 01:41:22;;;;;;;1.00;0.13;;;15.20;52.00;;;;;;4861856;29;20068;-73
2020/12/25 01:43:48;;;;;;;1.67;0.40;;;15.20;52.00;;;;;;4862072;29;20060;-73
2020/12/25 01:46:15;;;;;;;2.80;0.30;;;15.10;51.90;;;;;;4862625;29;20511;-73
2020/12/25 01:48:42;;;;;;;4.07;0.20;;;15.10;51.90;;;;;;4862135;29;20042;-74
2020/12/25 01:51:11;;;;;;;1.65;0.30;;;15.20;52.00;;;;;;4861634;29;20050;-74
2020/12/25 01:53:38;;;;;;;3.13;0.77;;;15.20;52.10;;;;;;4864478;29;20360;-73
2020/12/25 01:56:04;;;;;;;3.67;0.50;;;15.20;52.10;;;;;;4866010;29;20457;-74
2020/12/25 01:58:33;;;;;;;2.83;0.43;;;15.10;52.10;;;;;;4865855;29;20041;-75
2020/12/25 02:01:01;;;;;;;3.03;0.50;;;15.20;52.10;;;;;;4865365;29;20418;-74
2020/12/25 02:03:27;;;;;;;2.63;0.30;;;15.20;52.10;;;;;;4865386;29;20057;-74
2020/12/25 02:05:52;;;;;;;5.80;0.77;;;15.20;52.10;;;;;;4865725;29;20122;-72
2020/12/25 02:08:18;;;;;;;5.72;1.05;;;15.20;52.10;;;;;;4865265;29;20056;-74
2020/12/25 02:10:45;;;;;;;4.65;0.98;;;15.20;52.20;;;;;;4864903;29;20074;-74
2020/12/25 02:13:11;;;;;;;4.60;0.82;;;15.20;52.20;;;;;;4865512;29;20443;-75
2020/12/25 02:15:37;;;;;;;3.22;0.70;;;15.20;52.10;;;;;;4866104;29;20060;-74
2020/12/25 02:18:04;;;;;;;4.47;0.60;;;15.20;52.10;;;;;;4864423;29;20079;-74
2020/12/25 02:20:30;;;;;;;6.00;1.30;;;15.20;52.10;;;;;;4864939;29;20053;-74
2020/12/25 02:22:56;;;;;;;5.28;0.98;;;15.20;52.10;;;;;;4864756;29;20056;-73
2020/12/25 02:25:22;;;;;;;8.93;1.45;;;15.20;52.10;;;;;;4864971;29;20136;-75
2020/12/25 02:27:47;;;;;;;6.35;1.10;;;15.20;52.00;;;;;;4864922;29;20389;-73
2020/12/25 02:30:16;;;;;;;6.57;1.27;;;15.20;52.00;;;;;;4864606;29;20058;-73
2020/12/25 02:32:42;;;;;;;7.95;1.30;;;15.20;52.00;;;;;;4864979;29;20477;-74
2020/12/25 02:35:08;;;;;;;4.70;1.33;;;15.20;52.10;;;;;;4864625;29;20080;-74
2020/12/25 02:37:34;;;;;;;4.85;1.50;;;15.20;52.10;;;;;;4865425;29;20061;-74
2020/12/25 02:40:00;;;;;;;4.78;1.00;;;15.20;52.20;;;;;;4864868;29;20054;-74
2020/12/25 02:42:26;;;;;;;8.68;1.08;;;15.20;52.20;;;;;;4864831;29;20073;-75
2020/12/25 02:44:52;;;;;;;5.75;1.38;;;15.20;52.10;;;;;;4863528;29;20049;-74
2020/12/25 02:47:18;;;;;;;5.22;1.33;;;15.20;52.00;;;;;;4865071;29;20064;-74
2020/12/25 02:49:44;;;;;;;5.35;0.90;;;15.20;52.60;;;;;;4864842;29;20053;-75
2020/12/25 02:52:10;;;;;;;5.85;1.10;;;15.20;52.00;;;;;;4865156;29;20068;-73
2020/12/25 02:54:36;;;;;;;6.53;1.55;;;15.20;52.00;;;;;;4864605;29;20503;-73
2020/12/25 02:57:02;;;;;;;5.50;1.33;;;15.20;52.00;;;;;;4864164;29;20143;-74
2020/12/25 02:59:28;;;;;;;4.90;1.00;;;15.20;51.90;;;;;;4864791;29;20340;-74
2020/12/25 03:01:54;;;;;;;5.22;1.10;;;15.20;51.70;;;;;;4863926;29;20061;-74
2020/12/25 03:04:21;;;;;;;7.97;1.13;;;15.20;51.60;;;;;;4863777;29;20073;-73
2020/12/25 03:06:47;;;;;;;4.25;1.25;;;15.20;52.20;;;;;;4863704;29;20375;-74
2020/12/25 03:09:13;;;;;;;4.20;1.08;;;15.20;51.60;;;;;;4863940;29;20049;-74
2020/12/25 03:11:40;;;;;;;5.18;1.17;;;15.20;51.60;;;;;;4863930;29;20106;-73
2020/12/25 03:14:06;;;;;;;3.03;0.90;;;15.20;51.70;;;;;;4864004;29;20052;-77
2020/12/25 03:16:32;;;;;;;4.43;0.88;;;15.20;51.70;;;;;;4864068;29;20124;-74
2020/12/25 03:18:58;;;;;;;4.18;0.90;;;15.20;51.70;;;;;;4864274;29;20493;-72
2020/12/25 03:21:24;;;;;;;3.55;1.00;;;15.20;51.70;;;;;;4863068;29;20086;-74
2020/12/25 03:23:50;;;;;;;5.72;0.90;;;15.20;51.70;;;;;;4864236;29;20046;-76
2020/12/25 03:26:17;;;;;;;3.97;0.70;;;15.20;51.80;;;;;;4864846;29;20061;-72
2020/12/25 03:28:43;;;;;;;4.63;1.08;;;15.20;51.70;;;;;;4864138;29;20089;-73
2020/12/25 03:31:09;;;;;;;3.97;1.10;;;15.20;52.40;;;;;;4863175;29;20447;-73
2020/12/25 03:33:34;;;;;;;5.78;1.25;;;15.20;51.70;;;;;;4863774;29;20065;-74
2020/12/25 03:36:00;;;;;;;7.88;1.00;;;15.20;51.70;;;;;;4864100;29;20045;-74
2020/12/25 03:38:27;;;;;;;6.20;1.30;;;15.20;51.80;;;;;;4863106;29;20060;-76
2020/12/25 03:40:53;;;;;;;4.18;0.85;;;15.20;51.80;;;;;;4878532;29;20049;-75
2020/12/25 03:43:19;;;;;;;5.80;1.20;;;15.20;51.70;;;;;;4863685;29;20057;-75
2020/12/25 03:45:45;;;;;;;7.03;1.20;;;15.20;51.80;;;;;;4863271;29;20045;-74
2020/12/25 03:48:13;;;;;;;4.55;0.93;;;15.20;51.80;;;;;;4863496;29;20080;-73
2020/12/25 03:50:39;;;;;;;4.88;0.70;;;15.20;51.80;;;;;;4863376;29;20049;-73
2020/12/25 03:53:04;;;;;;;5.80;1.10;;;15.20;51.70;;;;;;4863893;29;20145;-75
2020/12/25 03:55:30;;;;;;;2.38;0.70;;;15.20;51.70;;;;;;4863935;29;20052;-74
2020/12/25 03:57:56;;;;;;;3.60;0.65;;;15.20;51.80;;;;;;4862956;29;20451;-75
2020/12/25 04:00:22;;;;;;;2.45;0.70;;;15.20;51.70;;;;;;4863064;29;20081;-75
2020/12/25 04:02:48;;;;;;;3.22;0.50;;;15.20;51.70;;;;;;4863044;29;20049;-75
2020/12/25 04:05:15;;;;;;;4.45;0.65;;;15.20;51.60;;;;;;4863611;29;20057;-73
2020/12/25 04:07:41;;;;;;;3.85;0.65;;;15.20;51.60;;;;;;4863621;29;20056;-74
2020/12/25 04:10:06;;;;;;;2.15;0.28;;;15.20;51.50;;;;;;4863338;29;20049;-74
2020/12/25 04:12:32;;;;;;;4.03;0.60;;;15.20;51.50;;;;;;4863252;29;20049;-74
2020/12/25 04:14:58;;;;;;;3.10;0.95;;;15.20;51.60;;;;;;4863618;29;20053;-75
2020/12/25 04:17:24;;;;;;;2.53;0.60;;;15.20;51.40;;;;;;4861826;29;20077;-73
2020/12/25 04:19:50;;;;;;;2.47;0.45;;;15.20;51.50;;;;;;4863272;29;20053;-74
2020/12/25 04:22:16;;;;;;;3.78;0.60;;;15.20;51.50;;;;;;4863337;29;20129;-74
2020/12/25 04:24:42;;;;;;;4.70;0.55;;;15.20;51.40;;;;;;4862909;29;20128;-73
2020/12/25 04:27:08;;;;;;;2.95;0.43;;;15.20;51.50;;;;;;4863110;29;20077;-73
2020/12/25 04:29:34;;;;;;;4.00;0.60;;;15.20;51.50;;;;;;4862603;29;20080;-75
2020/12/25 04:32:00;;;;;;;3.97;0.50;;;15.20;51.40;;;;;;4862661;29;20375;-74
2020/12/25 04:34:26;;;;;;;4.07;0.57;;;15.20;51.40;;;;;;4863102;29;20041;-73
2020/12/25 04:36:51;;;;;;;4.43;0.57;;;15.20;51.40;;;;;;4862705;29;20041;-73
2020/12/25 04:39:17;;;;;;;4.72;0.75;;;15.20;51.40;;;;;;4863375;29;20058;-73
2020/12/25 04:41:43;;;;;;;2.50;0.45;;;15.20;51.40;;;;;;4863238;29;20049;-74
2020/12/25 04:44:09;;;;;;;3.00;0.60;;;15.20;51.40;;;;;;4862927;29;20128;-73
2020/12/25 04:46:35;;;;;;;3.03;0.55;;;15.20;51.40;;;;;;4862730;29;20057;-73
2020/12/25 04:49:01;;;;;;;7.18;1.05;;;15.20;51.40;;;;;;4862551;29;20463;-72
2020/12/25 04:51:27;;;;;;;3.60;0.73;;;15.20;51.40;;;;;;4863045;29;20049;-74
2020/12/25 04:53:54;;;;;;;2.53;0.60;;;15.20;51.30;;;;;;4862900;29;20057;-73
2020/12/25 04:56:24;;;;;;;2.92;0.47;;;15.20;51.40;;;;;;4862165;29;20073;-74
2020/12/25 04:58:51;;;;;;;4.10;0.57;;;15.20;51.40;;;;;;4863046;29;20049;-73
2020/12/25 05:01:17;;;;;;;2.80;0.73;;;15.20;51.50;;;;;;4862686;29;20049;-74
2020/12/25 05:03:44;;;;;;;2.90;0.50;;;15.20;51.50;;;;;;4862603;29;20113;-74
2020/12/25 05:06:15;;;;;;;3.08;0.60;;;15.20;51.50;;;;;;4862469;29;20074;-73
2020/12/25 05:08:49;;;;;;;2.85;0.60;;;15.20;51.50;;;;;;4862556;29;20124;-74
2020/12/25 05:11:17;;;;;;;2.97;0.60;;;15.20;51.60;;;;;;4862274;29;20064;-73
2020/12/25 05:13:54;;;;;;;3.05;0.70;;;15.20;51.60;;;;;;4862777;29;20383;-73
2020/12/25 05:16:22;;;;;;;4.65;0.60;;;15.20;51.50;;;;;;4861840;29;20049;-74
2020/12/25 05:18:50;;;;;;;2.28;0.40;;;15.20;51.70;;;;;;4862735;29;20132;-73
2020/12/25 05:21:17;;;;;;;5.13;0.77;;;15.20;51.70;;;;;;4862145;29;20053;-73
2020/12/25 05:23:45;;;;;;;4.10;0.82;;;15.10;51.70;;;;;;4862382;29;20057;-74
2020/12/25 05:26:13;;;;;;;3.63;0.55;;;15.20;51.80;;;;;;4859930;29;20479;-74
2020/12/25 05:28:49;;;;;;;4.82;0.82;;;15.20;51.80;;;;;;4867215;29;20363;-76
2020/12/25 05:31:16;;;;;;;3.60;0.80;;;15.20;51.80;;;;;;4864959;29;20053;-75
2020/12/25 05:33:42;;;;;;;4.38;0.60;;;15.20;51.80;;;;;;4856050;29;20060;-74
2020/12/25 05:36:10;;;;;;;6.50;1.00;;;15.20;51.80;;;;;;4864306;29;20050;-75
2020/12/25 05:38:37;;;;;;;7.45;0.98;;;15.20;51.80;;;;;;4865355;29;20468;-77
2020/12/25 05:41:05;;;;;;;4.50;0.95;;;15.20;51.80;;;;;;4865988;29;20080;-73
2020/12/25 05:43:31;;;;;;;5.22;0.95;;;15.20;51.80;;;;;;4865963;29;20056;-74
2020/12/25 05:45:57;;;;;;;2.58;0.50;;;15.10;51.70;;;;;;4865584;29;20060;-74
2020/12/25 05:48:23;;;;;;;5.07;0.80;;;15.20;51.60;;;;;;4865944;29;20194;-74
2020/12/25 05:50:50;;;;;;;3.92;0.70;;;15.20;51.50;;;;;;4866151;29;20049;-74
2020/12/25 05:53:17;;;;;;;2.55;0.68;;;15.20;51.60;;;;;;4865385;29;20080;-75
2020/12/25 05:55:44;;;;;;;4.43;0.70;;;15.10;51.40;;;;;;4865682;29;20388;-75
2020/12/25 05:58:13;;;;;;;2.63;0.35;;;15.10;51.40;;;;;;4865842;29;20053;-74
2020/12/25 06:00:43;;;;;;;2.50;0.60;;;15.10;51.50;;;;;;4864220;29;20045;-74
2020/12/25 06:03:18;;;;;;;4.93;1.17;;;15.10;51.60;;;;;;4848243;29;20046;-74
2020/12/25 06:05:51;;;;;;;2.55;0.55;;;15.10;51.50;;;;;;4856443;29;20052;-78
2020/12/25 06:08:36;;;;;;;4.30;0.80;;;15.10;51.50;;;;;;4856174;29;20056;-77
2020/12/25 06:11:03;;;;;;;3.13;0.52;;;15.20;51.70;;;;;;4865180;29;20065;-76
2020/12/25 06:13:40;;;;;;;3.38;0.60;;;15.20;52.00;;;;;;4863468;29;20050;-75
2020/12/25 06:16:13;;;;;;;3.97;0.60;;;15.20;52.10;;;;;;4863619;29;20049;-76
2020/12/25 06:18:53;;;;;;;4.05;0.45;;;15.20;52.10;;;;;;4865258;29;20045;-76
2020/12/25 06:21:43;;;;;;;4.15;0.45;;;15.20;52.10;;;;;;4865119;29;20072;-75
2020/12/25 06:24:14;;;;;;;3.20;0.60;;;15.30;52.20;;;;;;4864243;29;20424;-74
2020/12/25 06:26:41;;;;;;;3.15;0.45;;;15.40;52.20;;;;;;4864804;29;20461;-75
2020/12/25 06:29:07;;;;;;;3.75;0.50;;;15.60;52.30;;;;;;4864937;29;20121;-76
2020/12/25 06:31:42;;;;;;;2.72;0.55;;;15.60;52.30;;;;;;4864992;29;20133;-75
2020/12/25 06:34:08;;;;;;;2.53;0.50;;;15.80;52.50;;;;;;4864030;29;20069;-75
2020/12/25 06:36:34;;;;;;;5.18;0.98;;;15.90;52.40;;;;;;4864547;29;20905;-74
2020/12/25 06:39:09;;;;;;;5.95;0.73;;;15.90;52.40;;;;;;4863111;29;20054;-78
2020/12/25 06:41:37;;;;;;;8.50;1.17;;;16.00;52.60;;;;;;4864548;29;20487;-76
2020/12/25 06:44:07;;;;;;;5.20;0.80;;;16.00;52.70;;;;;;4864180;29;20052;-77
2020/12/25 06:46:34;;;;;;;4.57;0.35;;;16.10;52.90;;;;;;4864658;29;20399;-80
2020/12/25 06:49:09;;;;;;;7.97;0.82;;;16.20;53.10;;;;;;4863395;29;20109;-79
2020/12/25 06:51:46;;;;;;;11.90;1.20;;;16.20;53.60;;;;;;4864343;29;20125;-80
2020/12/25 06:54:17;;;;;;;11.07;1.30;;;16.20;53.80;;;;;;4864691;29;20088;-79
2020/12/25 06:56:42;;;;;;;10.15;1.38;;;16.30;54.10;;;;;;4863955;29;20033;-80
2020/12/25 06:59:16;;;;;;;6.38;0.70;;;16.30;54.30;;;;;;4864588;29;20113;-79
2020/12/25 07:01:44;;;;;;;9.85;1.58;;;16.40;54.60;;;;;;4863743;29;20053;-81
2020/12/25 07:04:42;;;;;;;9.27;1.02;;;16.40;54.50;;;;;;4864317;29;20052;-78
2020/12/25 07:07:11;;;;;;;8.43;0.98;;;16.50;54.90;;;;;;4842758;29;20069;-78
2020/12/25 07:13:23;;;;;;;12.40;1.05;;;16.60;55.20;;;;;;4863382;29;20041;-80
2020/12/25 07:15:52;;;;;;;7.22;0.73;;;16.70;55.30;;;;;;4864134;29;20093;-80
2020/12/25 07:18:30;;;;;;;9.60;1.23;;;16.80;55.10;;;;;;4862903;29;20427;-80
2020/12/25 07:20:57;;;;;;;5.43;0.57;;;16.90;55.40;;;;;;4854558;29;20487;-79
2020/12/25 07:23:23;;;;;;;8.13;0.75;;;16.90;55.40;;;;;;4877918;29;20136;-76
2020/12/25 07:36:22;;;;;;;9.40;1.10;;;17.20;55.60;;;;;;4715937;30;20080;-80
2020/12/25 07:38:59;;;;;;;5.25;0.40;;;17.20;55.30;;;;;;4787338;29;20078;-78
2020/12/25 07:41:24;;;;;;;8.32;0.80;;;17.20;55.30;;;;;;4787814;29;20154;-81
2020/12/25 07:44:08;;;;;;;6.70;0.50;;;17.10;55.10;;;;;;4783748;30;20090;-86
2020/12/25 07:46:40;;;;;;;7.15;1.13;;;17.10;55.10;;;;;;4769197;30;20062;-83
2020/12/25 07:49:10;;;;;;;6.75;1.00;;;17.00;54.60;;;;;;4788599;30;20101;-79
2020/12/25 07:51:37;;;;;;;5.95;0.88;;;17.00;54.80;;;;;;4807836;29;20080;-81
2020/12/25 07:54:04;;;;;;;4.78;0.63;;;17.00;54.60;;;;;;4873458;29;20056;-79
2020/12/25 07:56:35;;;;;;;6.68;1.02;;;17.00;54.60;;;;;;4857930;29;20057;-81
2020/12/25 07:59:07;;;;;;;7.63;0.82;;;17.00;54.80;;;;;;4858272;29;20033;-85
2020/12/25 08:01:34;;;;;;;5.00;0.70;;;17.00;54.80;;;;;;4861561;29;20045;-83
2020/12/25 08:04:01;;;;;;;8.52;1.15;;;17.00;54.80;;;;;;4868495;29;20461;-80
2020/12/25 08:06:28;;;;;;;18.38;1.65;;;17.10;55.00;;;;;;4876882;29;20424;-80
2020/12/25 08:09:04;;;;;;;18.63;1.65;;;17.10;55.10;;;;;;4862975;29;20041;-73
2020/12/25 08:11:31;;;;;;;18.42;1.27;;;17.10;55.20;;;;;;4861566;29;20046;-73
2020/12/25 08:14:05;;;;;;;18.42;2.28;;;17.10;55.20;;;;;;4862531;29;20419;-77
2020/12/25 08:16:32;;;;;;;11.38;0.93;;;17.10;55.10;;;;;;4863479;29;20421;-75
2020/12/25 08:18:58;;;;;;;17.38;1.80;;;17.10;54.90;;;;;;4856385;29;20128;-75
2020/12/25 08:21:33;;;;;;;13.25;1.42;;;17.20;54.90;;;;;;4861729;29;20132;-78
2020/12/25 08:24:02;;;;;;;14.90;1.75;;;17.20;54.80;;;;;;4844671;29;20049;-76
2020/12/25 08:26:33;;;;;;;18.08;2.05;;;17.20;54.80;;;;;;4853203;29;20420;-77
2020/12/25 08:28:59;;;;;;;20.40;1.80;;;17.20;54.90;;;;;;4860220;29;20048;-77
2020/12/25 08:31:25;;;;;;;14.18;1.83;;;17.30;55.10;;;;;;4861475;29;20049;-76
2020/12/25 08:33:56;;;;;;;16.17;1.45;;;17.30;55.40;;;;;;4861129;29;20072;-74
2020/12/25 08:36:23;;;;;;;11.20;1.30;;;17.30;55.50;;;;;;4858072;29;20486;-77
2020/12/25 08:38:50;;;;;;;21.52;2.08;;;17.30;55.60;;;;;;4860514;29;20054;-76
2020/12/25 08:41:16;;;;;;;12.90;1.50;;;17.30;55.50;;;;;;4856260;29;20057;-78
2020/12/25 08:43:42;;;;;;;12.55;1.60;;;17.40;55.40;;;;;;4861587;29;20367;-78
2020/12/25 08:46:08;;;;;;;16.30;1.50;;;17.50;55.30;;;;;;4866403;29;20125;-77
2020/12/25 08:48:48;;;;;;;17.42;1.60;;;17.50;55.20;;;;;;4860773;29;20133;-79
2020/12/25 08:51:15;;;;;;;24.65;1.77;;;17.60;55.20;;;;;;4860511;29;20128;-80
2020/12/25 08:53:52;;;;;;;12.55;1.20;;;17.70;55.10;;;;;;4857491;29;20388;-76
2020/12/25 08:56:23;;;;;;;14.48;1.30;;;17.70;55.10;;;;;;4862174;29;20045;-78
2020/12/25 08:58:55;;;;;;;13.35;1.23;;;17.80;54.90;;;;;;4861443;29;20468;-76
2020/12/25 09:01:22;;;;;;;8.85;0.90;;;17.90;54.80;;;;;;4861655;29;20467;-76
2020/12/25 09:03:48;;;;;;;14.43;1.42;;;17.90;54.60;;;;;;4859372;29;20068;-76
2020/12/25 09:06:14;;;;;;;12.30;1.10;;;17.90;54.60;;;;;;4859818;29;20462;-80
2020/12/25 09:08:40;;;;;;;15.88;1.27;;;17.90;54.60;;;;;;4857767;29;20128;-77
2020/12/25 09:11:10;;;;;;;12.20;0.98;;;17.90;54.60;;;;;;4861374;29;20068;-80
2020/12/25 09:13:37;;;;;;;16.95;1.35;;;17.90;54.60;;;;;;4858859;29;20128;-77
2020/12/25 09:16:04;;;;;;;17.00;1.80;;;17.80;54.60;;;;;;4860428;29;20053;-80
2020/12/25 09:18:30;;;;;;;11.93;0.80;;;17.80;54.70;;;;;;4860571;29;20045;-79
2020/12/25 09:20:55;;;;;;;7.55;0.98;;;17.70;54.60;;;;;;4862753;29;20053;-77
2020/12/25 09:23:21;;;;;;;9.60;1.10;;;17.60;54.50;;;;;;4861744;29;20049;-76
2020/12/25 09:25:48;;;;;;;6.82;0.98;;;17.60;54.50;;;;;;4862564;29;20408;-77
2020/12/25 09:28:14;;;;;;;13.23;1.10;;;17.50;54.20;;;;;;4861722;29;20053;-78
2020/12/25 09:30:40;;;;;;;18.50;1.27;;;17.50;54.10;;;;;;4862432;29;20054;-77
2020/12/25 09:33:05;;;;;;;8.00;0.93;;;17.50;54.20;;;;;;4861301;29;20049;-78
2020/12/25 09:35:31;;;;;;;7.47;0.50;;;17.50;54.00;;;;;;4861385;29;20128;-76
2020/12/25 09:37:57;;;;;;;8.32;0.80;;;17.50;53.90;;;;;;4861071;29;20041;-77
2020/12/25 09:40:23;;;;;;;4.78;0.85;;;17.60;53.90;;;;;;4862083;29;20092;-76
2020/12/25 09:42:48;;;;;;;5.95;0.60;;;17.50;53.70;;;;;;4860882;29;20041;-77
2020/12/25 09:45:14;;;;;;;2.60;0.40;;;17.60;53.80;;;;;;4861424;29;20045;-77
2020/12/25 09:47:40;;;;;;;4.40;0.43;;;17.60;53.70;;;;;;4861236;29;20069;-78
2020/12/25 09:50:07;;;;;;;3.50;0.57;;;17.60;53.70;;;;;;4861872;29;20045;-76
2020/12/25 09:52:34;;;;;;;4.80;0.50;;;17.60;53.60;;;;;;4862958;29;20071;-76
2020/12/25 09:55:00;;;;;;;7.63;0.90;;;17.70;53.60;;;;;;4860401;29;20069;-76
2020/12/25 09:57:26;;;;;;;2.88;0.50;;;17.70;53.60;;;;;;4862386;29;20081;-78
2020/12/25 09:59:55;;;;;;;6.95;1.35;;;17.70;53.60;;;;;;4860209;29;20447;-77
2020/12/25 10:02:21;;;;;;;5.75;0.88;;;17.70;53.60;;;;;;4862020;29;20053;-78
2020/12/25 10:04:47;;;;;;;4.32;1.13;;;17.70;53.50;;;;;;4859678;29;20053;-79
2020/12/25 10:07:13;;;;;;;7.00;0.70;;;17.70;53.70;;;;;;4860495;29;20060;-78
2020/12/25 10:09:39;;;;;;;10.90;1.08;;;17.70;53.70;;;;;;4860375;29;20049;-76
2020/12/25 10:12:05;;;;;;;9.32;1.00;;;17.70;53.90;;;;;;4861083;29;20065;-77
2020/12/25 10:14:30;;;;;;;8.57;0.68;;;17.70;54.00;;;;;;4862906;29;20386;-76
2020/12/25 10:16:57;;;;;;;8.93;0.98;;;17.80;54.10;;;;;;4864103;29;20080;-76
2020/12/25 10:19:22;;;;;;;7.88;0.80;;;17.80;54.20;;;;;;4864655;29;20046;-77
2020/12/25 10:21:50;;;;;;;5.03;0.63;;;17.80;54.30;;;;;;4878836;29;20053;-76
2020/12/25 10:24:15;;;;;;;4.57;0.63;;;17.90;54.40;;;;;;4864610;29;20124;-77
2020/12/25 10:26:41;;;;;;;8.27;1.38;;;17.90;54.40;;;;;;4864474;29;20069;-79
2020/12/25 10:29:07;;;;;;;5.32;0.80;;;17.90;54.50;;;;;;4864704;29;20050;-77
2020/12/25 10:31:33;;;;;;;6.28;0.77;;;17.90;54.60;;;;;;4863792;29;20106;-80
2020/12/25 10:33:59;;;;;;;4.43;0.55;;;17.90;54.60;;;;;;4864700;29;20528;-76
2020/12/25 10:36:25;;;;;;;7.97;0.70;;;18.00;54.70;;;;;;4863290;29;20106;-77
2020/12/25 10:38:51;;;;;;;6.10;0.60;;;18.00;54.80;;;;;;4864753;29;20096;-77
2020/12/25 10:41:17;;;;;;;7.13;0.65;;;18.00;54.80;;;;;;4863068;29;20456;-76
2020/12/25 10:43:45;;;;;;;7.75;0.77;;;18.00;54.80;;;;;;4867346;29;20048;-79
2020/12/25 10:46:11;;;;;;;13.57;1.48;;;18.00;54.90;;;;;;4862922;29;20089;-78
2020/12/25 10:48:37;;;;;;;6.55;0.70;;;18.00;54.90;;;;;;4853769;29;20158;-76
2020/12/25 10:51:02;;;;;;;4.57;0.82;;;18.00;54.50;;;;;;4858420;29;20072;-75
2020/12/25 10:53:28;;;;;;;9.38;1.15;;;18.00;54.40;;;;;;4858321;29;20053;-75
2020/12/25 10:55:54;;;;;;;9.88;1.00;;;17.90;54.20;;;;;;4861058;29;20082;-76
2020/12/25 10:58:20;;;;;;;10.23;1.13;;;18.00;54.40;;;;;;4862631;29;20069;-80
2020/12/25 11:00:47;;;;;;;11.05;1.05;;;18.00;54.40;;;;;;4859599;29;20052;-78
2020/12/25 11:03:13;;;;;;;14.68;1.10;;;18.00;54.30;;;;;;4860763;29;20041;-76
2020/12/25 11:05:39;;;;;;;6.85;0.95;;;18.00;54.10;;;;;;4861438;29;20045;-76
2020/12/25 11:08:05;;;;;;;5.85;0.73;;;18.00;54.10;;;;;;4861601;29;20057;-79
2020/12/25 11:10:30;;;;;;;9.52;1.08;;;18.10;54.20;;;;;;4862393;29;20120;-78
2020/12/25 11:12:56;;;;;;;7.00;0.95;;;18.10;54.10;;;;;;4863722;29;20383;-77
2020/12/25 11:15:22;;;;;;;12.30;1.67;;;18.10;54.00;;;;;;4862667;29;20055;-78
2020/12/25 11:17:48;;;;;;;7.55;0.90;;;18.10;54.00;;;;;;4864323;29;20147;-74
2020/12/25 11:20:13;;;;;;;9.45;1.30;;;18.20;54.00;;;;;;4864156;29;20053;-74
2020/12/25 11:22:39;;;;;;;7.05;0.70;;;18.20;53.90;;;;;;4862801;29;20471;-74
2020/12/25 11:25:05;;;;;;;7.38;0.90;;;18.20;53.80;;;;;;4862138;29;20152;-78
2020/12/25 11:27:32;;;;;;;10.10;1.00;;;18.20;53.80;;;;;;4863173;29;20053;-79
2020/12/25 11:29:58;;;;;;;8.50;1.00;;;18.20;53.90;;;;;;4864169;29;20109;-76
2020/12/25 11:32:23;;;;;;;7.35;1.25;;;18.30;53.90;;;;;;4861762;29;20397;-78
2020/12/25 11:34:49;;;;;;;6.90;0.80;;;18.30;53.90;;;;;;4858098;29;20128;-77
2020/12/25 11:37:15;;;;;;;7.38;0.90;;;18.30;53.90;;;;;;4863420;29;20101;-78
2020/12/25 11:39:41;;;;;;;7.80;0.75;;;18.30;53.90;;;;;;4863928;29;20452;-76
2020/12/25 11:42:06;;;;;;;5.88;0.60;;;18.30;53.90;;;;;;4862551;29;20049;-78
2020/12/25 11:44:32;;;;;;;4.50;0.60;;;18.30;53.90;;;;;;4863005;29;20072;-77
2020/12/25 11:46:58;;;;;;;7.05;0.88;;;18.30;53.90;;;;;;4862856;29;20057;-77
2020/12/25 11:49:25;;;;;;;3.40;0.90;;;18.30;54.00;;;;;;4862709;29;20041;-76
2020/12/25 11:51:54;;;;;;;7.45;0.68;;;18.30;53.90;;;;;;4862397;29;20057;-77
2020/12/25 11:54:20;;;;;;;9.60;1.08;;;18.30;53.90;;;;;;4869313;29;20037;-76
2020/12/25 11:56:46;;;;;;;10.70;0.77;;;18.20;54.20;;;;;;4879086;29;20061;-79
2020/12/25 11:59:12;;;;;;;13.90;0.95;;;18.20;54.20;;;;;;4863571;29;20121;-81
2020/12/25 12:01:38;;;;;;;11.18;1.40;;;18.20;54.40;;;;;;4862999;29;20072;-79
2020/12/25 12:04:04;;;;;;;7.18;0.90;;;18.20;54.60;;;;;;4858995;29;20072;-81
2020/12/25 12:06:29;;;;;;;14.18;1.20;;;18.20;54.60;;;;;;4861829;29;20049;-80
2020/12/25 12:08:55;;;;;;;10.32;0.70;;;18.20;54.70;;;;;;4863070;29;20125;-77
2020/12/25 12:11:21;;;;;;;9.68;0.80;;;18.10;54.70;;;;;;4876864;29;20067;-79
2020/12/25 12:13:50;;;;;;;7.97;0.70;;;18.10;54.70;;;;;;4861091;29;20049;-83
2020/12/25 12:16:24;;;;;;;8.30;0.90;;;18.10;54.80;;;;;;4863236;29;20115;-78
2020/12/25 12:18:51;;;;;;;9.25;0.95;;;18.10;55.60;;;;;;4862427;29;20053;-81
2020/12/25 12:21:18;;;;;;;10.43;1.15;;;18.10;55.60;;;;;;4877418;29;20412;-82
2020/12/25 12:23:44;;;;;;;8.98;1.10;;;18.00;54.40;;;;;;4862209;29;20041;-81
2020/12/25 12:26:10;;;;;;;7.05;0.95;;;18.00;54.70;;;;;;4863199;29;20121;-80
2020/12/25 12:28:36;;;;;;;6.50;1.35;;;18.00;54.90;;;;;;4860797;29;20053;-81
2020/12/25 12:31:02;;;;;;;12.40;4.90;;;18.00;55.10;;;;;;4875656;29;20067;-80
2020/12/25 12:33:28;;;;;;;31.00;26.48;;;18.00;55.00;;;;;;4858630;29;20038;-79
2020/12/25 12:35:54;;;;;;;59.88;51.05;;;18.10;55.00;;;;;;4861973;29;20112;-81
2020/12/25 12:38:20;;;;;;;112.25;100.70;;;18.10;54.80;;;;;;4861850;29;20070;-82
2020/12/25 12:40:45;;;;;;;277.83;251.65;;;18.10;54.80;;;;;;4861107;29;20469;-82
2020/12/25 12:43:11;;;;;;;69.00;61.92;;;18.10;54.50;;;;;;4856932;29;20177;-83
2020/12/25 12:45:37;;;;;;;38.53;32.88;;;18.00;53.20;;;;;;4858393;29;20080;-82
2020/12/25 12:48:03;;;;;;;25.23;20.88;;;17.80;51.00;;;;;;4876557;29;20045;-80
2020/12/25 12:54:40;;;;;;;8.95;4.22;;;17.30;49.20;;;;;;4823269;29;20532;-83
2020/12/25 12:57:11;;;;;;;10.98;3.42;;;17.10;47.80;;;;;;4850481;29;20053;-80
2020/12/25 12:59:38;;;;;;;9.13;2.65;;;16.80;47.90;;;;;;4858098;29;20128;-80
2020/12/25 13:02:04;;;;;;;21.67;3.20;;;16.70;48.00;;;;;;4857638;29;20064;-78
2020/12/25 13:04:30;;;;;;;9.50;2.38;;;16.60;48.90;;;;;;4861851;29;20057;-78